Terminal Aerodrome Forecast
Issued by NWS

Home | Current Version | Previous Version | Text Only | Print | Product List | Glossary On
Versions: 1 2 3 4 5 6 7 8 9 10 11 12 13 14 15 16 17 18 19
797
FTUS46 KLOX 300558
TAFOXR
TAF
KOXR 300558Z 3006/0106 31006KT P6SM BKN015
     FM301000 31008KT 6SM -DZ BR BKN012 OVC025
     FM301600 31010KT P6SM BKN025
     FM301800 27012KT P6SM SCT030 SCT060
     FM302100 27012G18KT P6SM FEW030 SCT060
     FM010300 29008KT P6SM BKN012=

USA.gov is the U.S. government's official web portal to all federal, state and local government web resources and services.